Time;durP1;ratioP1;P1;durP2;ratioP2;P2;SDS_P1;SDS_P2;PMS_P1;PMS_P2;Temp;Humidity;BMP_temperature;BMP_pressure;BME280_temperature;BME280_humidity;BME280_pressure;Samples;Min_cycle;Max_cycle;Signal;HPM_P1;HPM_P2
2022/05/24 00:02:25;;;;;;;0.00;0.00;;;13.70;99.90;;;;;;4888204;29;20052;-63
2022/05/24 00:04:51;;;;;;;0.00;0.00;;;13.50;99.90;;;;;;4888164;29;20037;-64
2022/05/24 00:07:16;;;;;;;0.08;0.08;;;13.50;99.90;;;;;;4885897;29;20064;-64
2022/05/24 00:09:42;;;;;;;0.00;0.00;;;13.50;99.90;;;;;;4886576;29;20053;-64
2022/05/24 00:12:08;;;;;;;0.00;0.00;;;13.50;99.90;;;;;;4888500;29;20095;-63
2022/05/24 00:17:18;;;;;;;0.00;0.00;;;13.50;99.90;;;;;;4888231;29;20067;-63
2022/05/24 00:19:44;;;;;;;0.00;0.00;;;13.50;99.90;;;;;;4888349;29;20286;-64
2022/05/24 00:22:09;;;;;;;0.00;0.00;;;13.40;99.90;;;;;;4886599;29;20087;-64
2022/05/24 00:24:35;;;;;;;0.00;0.00;;;13.40;99.90;;;;;;4887210;29;20450;-63
2022/05/24 00:27:01;;;;;;;0.00;0.00;;;13.30;99.90;;;;;;4870950;29;20067;-63
2022/05/24 00:29:26;;;;;;;0.10;0.10;;;13.40;99.90;;;;;;4887384;29;20051;-63
2022/05/24 00:31:53;;;;;;;0.10;0.10;;;13.40;99.90;;;;;;4887485;29;20071;-64
2022/05/24 00:34:18;;;;;;;0.10;0.10;;;13.40;99.90;;;;;;4887408;29;20055;-64
2022/05/24 00:36:44;;;;;;;0.00;0.00;;;13.30;99.90;;;;;;4888065;29;20048;-63
2022/05/24 00:39:10;;;;;;;0.10;0.10;;;13.30;99.90;;;;;;4886607;29;20052;-63
2022/05/24 00:41:42;;;;;;;0.00;0.00;;;13.30;99.90;;;;;;4887350;29;20484;-64
2022/05/24 00:44:39;;;;;;;1.85;0.80;;;13.20;99.90;;;;;;4887651;29;20260;-63
2022/05/24 00:47:13;;;;;;;0.10;0.10;;;13.30;99.90;;;;;;4885728;29;20823;-63
2022/05/24 00:49:47;;;;;;;0.00;0.00;;;13.30;99.90;;;;;;4905814;29;20044;-64
2022/05/24 00:52:13;;;;;;;0.00;0.00;;;13.20;99.90;;;;;;4906764;29;20463;-64
2022/05/24 00:54:39;;;;;;;0.00;0.00;;;13.30;99.90;;;;;;4905364;29;20107;-63
2022/05/24 00:57:22;;;;;;;0.00;0.00;;;13.20;99.90;;;;;;4905710;29;20147;-64
2022/05/24 00:59:55;;;;;;;0.30;0.13;;;13.10;99.90;;;;;;4906346;29;20090;-63
2022/05/24 01:02:21;;;;;;;0.00;0.00;;;13.00;99.90;;;;;;4889164;29;20062;-62
2022/05/24 01:04:47;;;;;;;0.00;0.00;;;13.10;99.90;;;;;;4905406;29;20110;-63
2022/05/24 01:07:13;;;;;;;0.10;0.10;;;13.10;99.90;;;;;;4906042;29;20063;-62
2022/05/24 01:09:38;;;;;;;0.00;0.00;;;13.00;99.90;;;;;;4905014;29;20048;-63
2022/05/24 01:12:22;;;;;;;0.00;0.00;;;13.00;99.90;;;;;;4886792;29;20054;-62
2022/05/24 01:14:49;;;;;;;0.00;0.00;;;12.90;99.90;;;;;;4886828;29;20052;-62
2022/05/24 01:17:14;;;;;;;0.00;0.00;;;12.90;99.90;;;;;;4887275;29;20425;-62
2022/05/24 01:19:46;;;;;;;0.00;0.00;;;12.80;99.90;;;;;;4886313;29;20139;-62
2022/05/24 01:22:34;;;;;;;0.00;0.00;;;12.80;99.90;;;;;;4870424;29;20040;-62
2022/05/24 01:25:27;;;;;;;0.00;0.00;;;12.70;99.90;;;;;;4869337;29;20771;-62
2022/05/24 01:27:53;;;;;;;0.10;0.10;;;12.70;99.90;;;;;;4870105;29;20048;-62
2022/05/24 01:30:19;;;;;;;0.00;0.00;;;12.60;99.90;;;;;;4886058;29;20040;-65
2022/05/24 01:38:18;;;;;;;0.00;0.00;;;12.50;99.90;;;;;;4886474;29;20512;-62
2022/05/24 01:40:47;;;;;;;0.00;0.00;;;12.70;99.90;;;;;;4886864;29;20051;-63
2022/05/24 01:43:15;;;;;;;0.15;0.10;;;12.40;99.90;;;;;;4869751;29;20088;-62
2022/05/24 01:45:49;;;;;;;0.00;0.00;;;12.50;99.90;;;;;;4892456;29;20048;-62
2022/05/24 01:48:20;;;;;;;0.10;0.10;;;12.40;99.90;;;;;;4890366;29;20516;-62
2022/05/24 01:50:48;;;;;;;0.00;0.00;;;12.50;99.90;;;;;;4869494;29;20056;-64
2022/05/24 01:53:30;;;;;;;0.00;0.00;;;12.30;99.90;;;;;;4869203;29;20519;-62
2022/05/24 01:55:59;;;;;;;0.10;0.10;;;12.30;99.90;;;;;;4885785;29;20057;-62
2022/05/24 01:58:28;;;;;;;0.00;0.00;;;12.30;99.90;;;;;;4886264;29;20087;-62
2022/05/24 02:01:02;;;;;;;0.20;0.20;;;12.20;99.90;;;;;;4886445;29;20128;-62
2022/05/24 02:03:27;;;;;;;0.45;0.20;;;12.20;99.90;;;;;;4885834;29;20041;-62
2022/05/24 02:05:53;;;;;;;0.00;0.00;;;12.30;99.90;;;;;;4886178;29;20476;-63
2022/05/24 02:08:21;;;;;;;0.00;0.00;;;12.30;99.90;;;;;;4884927;29;20077;-62
2022/05/24 02:11:03;;;;;;;0.10;0.00;;;12.20;99.90;;;;;;4868702;29;20053;-63
2022/05/24 02:13:35;;;;;;;0.00;0.00;;;12.30;99.90;;;;;;4886102;29;20053;-62
2022/05/24 02:16:05;;;;;;;0.00;0.00;;;12.30;99.90;;;;;;4885244;29;20052;-62
2022/05/24 02:18:32;;;;;;;0.03;0.03;;;12.40;99.90;;;;;;4885898;29;20053;-62
2022/05/24 02:20:58;;;;;;;0.00;0.00;;;12.30;99.90;;;;;;4886292;29;20048;-62
2022/05/24 02:23:24;;;;;;;0.00;0.00;;;12.30;99.90;;;;;;4884835;29;20052;-62
2022/05/24 02:25:55;;;;;;;0.00;0.00;;;12.30;99.90;;;;;;4885829;29;20041;-62
2022/05/24 02:28:24;;;;;;;0.00;0.00;;;12.30;99.90;;;;;;4885996;29;20052;-62
2022/05/24 02:30:56;;;;;;;0.00;0.00;;;12.30;99.90;;;;;;4885784;29;20124;-62
2022/05/24 02:33:23;;;;;;;0.00;0.00;;;12.30;99.90;;;;;;4885752;29;20089;-62
2022/05/24 02:35:49;;;;;;;0.00;0.00;;;12.40;99.90;;;;;;4869323;29;20512;-62
2022/05/24 02:38:15;;;;;;;0.00;0.00;;;12.30;99.90;;;;;;4885655;29;20408;-64
2022/05/24 02:43:27;;;;;;;0.00;0.00;;;12.30;99.90;;;;;;4885293;29;20092;-62
2022/05/24 02:45:52;;;;;;;0.10;0.00;;;12.40;99.90;;;;;;4894743;29;20048;-62
2022/05/24 02:48:18;;;;;;;0.00;0.00;;;12.40;99.90;;;;;;4876165;29;20060;-63
2022/05/24 02:50:44;;;;;;;0.00;0.00;;;12.40;99.90;;;;;;4890132;29;20049;-63
2022/05/24 02:53:10;;;;;;;0.00;0.00;;;12.40;99.90;;;;;;4888934;29;20045;-62
2022/05/24 02:55:35;;;;;;;0.00;0.00;;;12.40;99.90;;;;;;4888760;29;20136;-62
2022/05/24 02:58:01;;;;;;;0.10;0.10;;;12.50;99.90;;;;;;4889289;29;20053;-62
2022/05/24 03:00:28;;;;;;;0.10;0.10;;;12.60;99.90;;;;;;4889412;29;20078;-62
2022/05/24 03:02:54;;;;;;;0.00;0.00;;;12.50;99.90;;;;;;4871926;29;20051;-63
2022/05/24 03:05:20;;;;;;;0.00;0.00;;;12.50;99.90;;;;;;4889250;29;20060;-63
2022/05/24 03:10:31;;;;;;;0.20;0.20;;;12.60;99.90;;;;;;4888524;29;20479;-63
2022/05/24 03:15:43;;;;;;;0.10;0.10;;;12.60;99.90;;;;;;4888781;29;20186;-64
2022/05/24 03:18:11;;;;;;;0.00;0.00;;;12.70;99.90;;;;;;4889353;29;20604;-63
2022/05/24 03:20:37;;;;;;;0.00;0.00;;;12.70;99.90;;;;;;4888969;29;20459;-62
2022/05/24 03:23:04;;;;;;;0.10;0.10;;;12.70;99.90;;;;;;4870770;29;20056;-63
2022/05/24 03:25:31;;;;;;;0.10;0.10;;;12.70;99.90;;;;;;4872155;29;20087;-63
2022/05/24 03:27:58;;;;;;;0.00;0.00;;;12.70;99.90;;;;;;4889051;29;20207;-63
2022/05/24 03:30:25;;;;;;;0.22;0.22;;;12.70;99.90;;;;;;4871941;29;20048;-62
2022/05/24 03:32:51;;;;;;;0.00;0.00;;;12.90;99.90;;;;;;4871242;29;20060;-63
2022/05/24 03:35:16;;;;;;;0.00;0.00;;;12.80;99.90;;;;;;4888337;29;20108;-63
2022/05/24 03:37:42;;;;;;;0.08;0.08;;;12.80;99.90;;;;;;4888537;29;20151;-63
2022/05/24 03:40:09;;;;;;;0.10;0.10;;;12.90;99.90;;;;;;4888303;29;20424;-62
2022/05/24 03:42:35;;;;;;;0.20;0.03;;;12.80;99.90;;;;;;4871922;29;20052;-62
2022/05/24 03:45:02;;;;;;;0.00;0.00;;;12.80;99.90;;;;;;4890908;29;20048;-62
2022/05/24 03:47:28;;;;;;;0.43;0.20;;;12.80;99.90;;;;;;4880084;29;20053;-62
2022/05/24 03:49:53;;;;;;;0.10;0.10;;;12.90;99.90;;;;;;4888229;29;20056;-62
2022/05/24 03:52:19;;;;;;;0.10;0.10;;;12.80;99.90;;;;;;4886333;29;20059;-65
2022/05/24 03:54:45;;;;;;;0.73;0.10;;;12.90;99.90;;;;;;4889018;29;20135;-63
2022/05/24 03:59:55;;;;;;;0.20;0.10;;;12.90;99.90;;;;;;4888338;29;20115;-64
2022/05/24 04:02:21;;;;;;;0.00;0.00;;;12.90;99.90;;;;;;4887981;29;20045;-64
2022/05/24 04:04:47;;;;;;;0.00;0.00;;;13.00;99.90;;;;;;4887776;29;20131;-65
2022/05/24 04:07:12;;;;;;;1.15;0.50;;;12.90;99.90;;;;;;4887789;29;20128;-64
2022/05/24 04:09:38;;;;;;;3.28;0.38;;;13.10;99.90;;;;;;4888102;29;20056;-62
2022/05/24 04:12:05;;;;;;;0.32;0.32;;;13.00;99.90;;;;;;4887598;29;20041;-62
2022/05/24 04:14:32;;;;;;;0.05;0.03;;;13.10;99.90;;;;;;4871126;29;20554;-62
2022/05/24 04:16:58;;;;;;;0.00;0.00;;;13.00;99.90;;;;;;4888008;29;20076;-62
2022/05/24 04:19:24;;;;;;;0.10;0.10;;;13.10;99.90;;;;;;4871147;29;20095;-62
2022/05/24 04:21:50;;;;;;;0.52;0.38;;;13.10;99.90;;;;;;4870600;29;20099;-62
2022/05/24 04:24:15;;;;;;;1.33;0.57;;;13.20;99.90;;;;;;4887510;29;20483;-63
2022/05/24 04:26:41;;;;;;;0.30;0.15;;;13.20;99.90;;;;;;4888479;29;20044;-62
2022/05/24 04:29:07;;;;;;;0.10;0.10;;;13.20;99.90;;;;;;4887372;29;20416;-63
2022/05/24 04:31:33;;;;;;;0.40;0.38;;;13.20;99.90;;;;;;4887555;29;20045;-62
2022/05/24 04:33:59;;;;;;;1.90;0.52;;;13.30;99.90;;;;;;4887939;29;20044;-62
2022/05/24 04:36:25;;;;;;;0.00;0.00;;;13.30;99.90;;;;;;4870781;29;20113;-62
2022/05/24 04:38:51;;;;;;;0.25;0.17;;;13.30;99.90;;;;;;4886567;29;20183;-63
2022/05/24 04:44:01;;;;;;;0.08;0.08;;;13.40;99.90;;;;;;4887212;29;20127;-62
2022/05/24 04:47:06;;;;;;;0.28;0.17;;;13.40;99.90;;;;;;4898112;29;20068;-63
2022/05/24 04:49:12;;;;;;;0.10;0.10;;;13.50;99.90;;;;;;4887780;29;20048;-62
2022/05/24 04:51:38;;;;;;;0.13;0.13;;;13.50;99.90;;;;;;4886780;29;20051;-62
2022/05/24 04:54:04;;;;;;;0.40;0.40;;;13.40;99.90;;;;;;4869792;29;20123;-62
2022/05/24 04:56:29;;;;;;;0.20;0.10;;;13.50;99.90;;;;;;4854966;29;20534;-62
2022/05/24 04:58:55;;;;;;;0.30;0.30;;;13.50;99.90;;;;;;4887190;29;20053;-62
2022/05/24 05:01:21;;;;;;;0.00;0.00;;;13.50;99.90;;;;;;4887307;29;20256;-62
2022/05/24 05:03:46;;;;;;;0.40;0.17;;;13.60;99.90;;;;;;4887251;29;20045;-63
2022/05/24 05:06:12;;;;;;;0.15;0.15;;;13.60;99.90;;;;;;4887607;29;20063;-62
2022/05/24 05:08:38;;;;;;;0.20;0.10;;;13.60;99.90;;;;;;4885187;29;20172;-62
2022/05/24 05:11:03;;;;;;;0.00;0.00;;;13.60;99.90;;;;;;4887301;29;20045;-62
2022/05/24 05:13:29;;;;;;;0.10;0.10;;;13.70;99.90;;;;;;4870367;29;20163;-62
2022/05/24 05:15:55;;;;;;;0.10;0.10;;;13.60;99.90;;;;;;4854740;29;20051;-62
2022/05/24 05:18:22;;;;;;;0.05;0.05;;;13.80;99.90;;;;;;4869479;29;20675;-62
2022/05/24 05:20:49;;;;;;;0.08;0.08;;;13.70;99.90;;;;;;4887039;29;20051;-62
2022/05/24 05:23:16;;;;;;;0.00;0.00;;;13.70;99.90;;;;;;4886771;29;20056;-62
2022/05/24 05:25:47;;;;;;;0.00;0.00;;;13.80;99.90;;;;;;4886403;29;20037;-62
2022/05/24 05:28:13;;;;;;;0.10;0.10;;;13.80;99.90;;;;;;4887317;29;20408;-61
2022/05/24 05:33:23;;;;;;;0.90;0.60;;;13.80;99.90;;;;;;4886716;29;20073;-64
2022/05/24 05:35:49;;;;;;;0.28;0.17;;;13.80;99.90;;;;;;4886738;29;20691;-64
2022/05/24 05:38:16;;;;;;;0.47;0.40;;;13.80;99.90;;;;;;4887949;29;20037;-66
2022/05/24 05:40:42;;;;;;;0.08;0.08;;;13.80;99.90;;;;;;4905409;29;20051;-65
2022/05/24 05:43:08;;;;;;;0.55;0.28;;;13.80;99.90;;;;;;4905635;29;20060;-64
2022/05/24 05:45:34;;;;;;;0.00;0.00;;;13.80;99.90;;;;;;4900063;29;20907;-63
2022/05/24 05:48:00;;;;;;;0.05;0.05;;;13.80;99.90;;;;;;4881951;29;20056;-64
2022/05/24 05:50:26;;;;;;;0.00;0.00;;;13.80;99.90;;;;;;4905498;29;20083;-64
2022/05/24 05:52:52;;;;;;;0.10;0.00;;;13.80;99.90;;;;;;4887700;29;20048;-64
2022/05/24 05:55:20;;;;;;;0.00;0.00;;;13.80;99.90;;;;;;4905264;29;20103;-65
2022/05/24 05:57:46;;;;;;;0.08;0.05;;;13.80;99.90;;;;;;4904947;29;20067;-64
2022/05/24 06:00:13;;;;;;;0.00;0.00;;;13.80;99.90;;;;;;4905407;29;20056;-62
2022/05/24 06:02:39;;;;;;;0.00;0.00;;;13.80;99.90;;;;;;4888031;29;20060;-63
2022/05/24 06:05:06;;;;;;;0.17;0.10;;;13.80;99.90;;;;;;4891057;29;20096;-63
2022/05/24 06:07:32;;;;;;;0.03;0.03;;;13.80;99.90;;;;;;4885036;29;20521;-63
2022/05/24 06:09:58;;;;;;;0.30;0.30;;;13.70;99.90;;;;;;4886196;29;20504;-63
2022/05/24 06:12:24;;;;;;;0.20;0.20;;;13.80;99.90;;;;;;4869313;29;20396;-62
2022/05/24 06:14:50;;;;;;;0.20;0.20;;;13.80;99.90;;;;;;4885547;29;20524;-62
2022/05/24 06:17:16;;;;;;;1.02;0.75;;;13.90;99.90;;;;;;4885904;29;20048;-63
2022/05/24 06:19:43;;;;;;;0.43;0.20;;;13.80;99.90;;;;;;4885753;29;20052;-63
2022/05/24 06:22:10;;;;;;;0.05;0.05;;;13.90;99.90;;;;;;4868200;29;20480;-62
2022/05/24 06:24:35;;;;;;;0.20;0.20;;;14.00;99.90;;;;;;4885776;29;20361;-62
2022/05/24 06:27:03;;;;;;;0.90;0.22;;;13.90;99.90;;;;;;4886195;29;20053;-62
2022/05/24 06:29:32;;;;;;;0.15;0.10;;;13.90;99.90;;;;;;4885267;29;20032;-62
2022/05/24 06:31:59;;;;;;;0.95;0.50;;;13.90;99.90;;;;;;4886111;29;20049;-62
2022/05/24 06:34:25;;;;;;;0.38;0.30;;;14.10;99.90;;;;;;4868894;29;20048;-63
2022/05/24 06:36:50;;;;;;;0.35;0.20;;;14.00;99.90;;;;;;4885047;29;20139;-63
2022/05/24 06:39:16;;;;;;;3.20;0.55;;;14.00;99.90;;;;;;4868554;29;20144;-64
2022/05/24 06:41:42;;;;;;;0.20;0.20;;;14.10;99.90;;;;;;4886268;29;20041;-65
2022/05/24 06:44:07;;;;;;;0.10;0.10;;;14.20;99.90;;;;;;4869094;29;20515;-63
2022/05/24 06:46:33;;;;;;;0.00;0.00;;;14.20;99.90;;;;;;4895625;29;20609;-63
2022/05/24 06:48:59;;;;;;;0.63;0.22;;;14.10;99.90;;;;;;4853743;29;20120;-63
2022/05/24 06:51:25;;;;;;;0.10;0.10;;;14.10;99.90;;;;;;4868701;29;20150;-62
2022/05/24 06:53:51;;;;;;;0.73;0.65;;;14.00;99.90;;;;;;4884797;29;20099;-62
2022/05/24 06:56:17;;;;;;;0.90;0.80;;;13.90;99.90;;;;;;4868108;29;20060;-63
2022/05/24 06:58:43;;;;;;;0.40;0.13;;;13.90;99.90;;;;;;4885834;29;20535;-63
2022/05/24 07:03:56;;;;;;;0.00;0.00;;;13.80;99.90;;;;;;4885894;29;20806;-63
2022/05/24 07:06:21;;;;;;;0.10;0.10;;;13.80;99.90;;;;;;4885598;29;20060;-63
2022/05/24 07:08:49;;;;;;;0.10;0.10;;;13.80;99.90;;;;;;4885047;29;20044;-64
2022/05/24 07:11:17;;;;;;;0.00;0.00;;;13.80;99.90;;;;;;4868871;29;20557;-63
2022/05/24 07:13:42;;;;;;;0.10;0.10;;;13.80;99.90;;;;;;4868998;29;20064;-64
2022/05/24 07:16:09;;;;;;;0.25;0.20;;;13.80;99.90;;;;;;4885426;29;20471;-63
2022/05/24 07:18:36;;;;;;;0.35;0.22;;;13.80;99.90;;;;;;4867926;29;20056;-63
2022/05/24 07:21:05;;;;;;;0.43;0.38;;;13.70;99.90;;;;;;4868777;29;20101;-63
2022/05/24 07:23:33;;;;;;;0.55;0.43;;;13.70;99.90;;;;;;4884500;29;20343;-63
2022/05/24 07:26:17;;;;;;;0.10;0.10;;;13.70;99.90;;;;;;4885098;29;20065;-63
2022/05/24 07:28:43;;;;;;;0.00;0.00;;;13.70;99.90;;;;;;4885602;29;20059;-64
2022/05/24 07:31:09;;;;;;;0.13;0.13;;;13.60;99.90;;;;;;4886864;29;20131;-64
2022/05/24 07:33:36;;;;;;;0.90;0.30;;;13.70;99.90;;;;;;4888285;29;20124;-60
2022/05/24 07:36:06;;;;;;;0.15;0.10;;;13.70;99.90;;;;;;4888806;29;20614;-65
2022/05/24 07:38:31;;;;;;;0.68;0.68;;;13.70;99.90;;;;;;4887671;29;20064;-64
2022/05/24 07:46:26;;;;;;;0.80;0.40;;;13.70;99.90;;;;;;4898576;29;20107;-64
2022/05/24 07:48:52;;;;;;;0.10;0.10;;;13.80;99.90;;;;;;4889067;29;20048;-64
2022/05/24 07:51:19;;;;;;;0.20;0.20;;;13.80;99.90;;;;;;4888418;29;20492;-65
2022/05/24 07:53:44;;;;;;;0.30;0.13;;;13.80;99.90;;;;;;4887308;29;20498;-64
2022/05/24 07:56:10;;;;;;;0.32;0.30;;;13.90;99.90;;;;;;4872040;29;20060;-64
2022/05/24 07:58:36;;;;;;;0.10;0.10;;;14.00;99.90;;;;;;4888361;29;20044;-61
2022/05/24 08:01:03;;;;;;;0.10;0.10;;;14.10;99.90;;;;;;4888563;29;20547;-63
2022/05/24 08:03:29;;;;;;;0.10;0.10;;;14.10;99.90;;;;;;4886732;29;20059;-63
2022/05/24 08:05:55;;;;;;;0.45;0.28;;;14.10;99.90;;;;;;4888283;29;20056;-63
2022/05/24 08:08:22;;;;;;;0.00;0.00;;;14.10;99.90;;;;;;4873177;29;20048;-63
2022/05/24 08:10:48;;;;;;;0.00;0.00;;;14.30;99.90;;;;;;4891573;29;20051;-64
2022/05/24 08:13:16;;;;;;;0.85;0.20;;;14.30;99.90;;;;;;4888530;29;20040;-62
2022/05/24 08:15:42;;;;;;;0.20;0.05;;;14.20;99.90;;;;;;4906277;29;20054;-63
2022/05/24 08:18:08;;;;;;;0.43;0.20;;;14.20;99.90;;;;;;4906515;29;20048;-62
2022/05/24 08:20:35;;;;;;;0.13;0.10;;;14.20;99.90;;;;;;4905016;29;20050;-63
2022/05/24 08:23:01;;;;;;;0.30;0.10;;;14.10;99.90;;;;;;4905696;29;20131;-63
2022/05/24 08:25:28;;;;;;;0.65;0.52;;;14.00;99.90;;;;;;4905986;29;20078;-63
2022/05/24 08:27:54;;;;;;;0.08;0.08;;;14.10;99.90;;;;;;4906010;29;20205;-63
2022/05/24 08:30:20;;;;;;;0.10;0.10;;;14.10;99.90;;;;;;4906436;29;20079;-64
2022/05/24 08:32:49;;;;;;;0.05;0.05;;;14.00;99.90;;;;;;4889446;29;20083;-63
2022/05/24 08:35:17;;;;;;;0.15;0.15;;;14.00;99.90;;;;;;4906135;29;20040;-63
2022/05/24 08:37:43;;;;;;;0.32;0.25;;;14.00;99.90;;;;;;4905846;29;20052;-64
2022/05/24 08:40:11;;;;;;;0.52;0.30;;;14.00;99.90;;;;;;4906480;29;20055;-63
2022/05/24 08:43:11;;;;;;;0.20;0.20;;;14.10;99.90;;;;;;4905094;29;20075;-63
2022/05/24 08:48:58;;;;;;;0.55;0.55;;;14.20;99.90;;;;;;4876942;29;20139;-63
2022/05/24 08:51:30;;;;;;;0.28;0.28;;;14.30;99.90;;;;;;4885519;29;20056;-63
2022/05/24 08:54:02;;;;;;;9.80;0.60;;;14.30;99.90;;;;;;4900030;29;20044;-63
2022/05/24 08:56:53;;;;;;;0.15;0.15;;;14.40;99.90;;;;;;4906014;29;20180;-63
2022/05/24 08:59:27;;;;;;;0.17;0.17;;;14.50;99.90;;;;;;4905346;29;20056;-63
2022/05/24 09:01:53;;;;;;;0.35;0.20;;;14.40;99.90;;;;;;4905870;29;20047;-61
2022/05/24 09:04:19;;;;;;;0.68;0.32;;;14.40;99.90;;;;;;4905142;29;20503;-63
2022/05/24 09:07:15;;;;;;;0.40;0.40;;;14.40;99.90;;;;;;4904963;29;20056;-62
2022/05/24 09:10:07;;;;;;;0.40;0.40;;;14.60;99.90;;;;;;4905352;29;20102;-64
2022/05/24 09:13:29;;;;;;;0.20;0.10;;;14.80;99.90;;;;;;4904670;29;20051;-65
2022/05/24 09:16:01;;;;;;;0.00;0.00;;;14.80;99.90;;;;;;4846548;29;20049;-62
2022/05/24 09:18:45;;;;;;;0.13;0.10;;;14.80;99.90;;;;;;4846783;29;20105;-62
2022/05/24 09:21:25;;;;;;;0.00;0.00;;;15.00;99.90;;;;;;4859454;29;20089;-62
2022/05/24 09:24:14;;;;;;;0.10;0.10;;;15.10;99.90;;;;;;4868480;29;20117;-62
2022/05/24 09:27:03;;;;;;;0.57;0.28;;;15.40;99.90;;;;;;4867542;29;20061;-62
2022/05/24 09:29:31;;;;;;;0.17;0.17;;;15.50;99.90;;;;;;4867984;29;20405;-62
2022/05/24 09:31:59;;;;;;;0.28;0.28;;;15.90;99.90;;;;;;4866316;29;20053;-62
2022/05/24 09:34:30;;;;;;;0.05;0.05;;;16.10;99.90;;;;;;4867995;29;20061;-62
2022/05/24 09:37:02;;;;;;;0.00;0.00;;;16.20;99.90;;;;;;4866032;29;20053;-63
2022/05/24 09:39:38;;;;;;;0.00;0.00;;;16.50;99.90;;;;;;4867383;29;20049;-62
2022/05/24 09:42:03;;;;;;;0.10;0.10;;;16.50;99.90;;;;;;4868151;29;20180;-62
2022/05/24 09:45:00;;;;;;;0.10;0.10;;;16.60;99.90;;;;;;4868518;29;20103;-62
2022/05/24 09:47:48;;;;;;;0.03;0.03;;;16.60;99.90;;;;;;4875967;29;20053;-62
2022/05/24 09:50:36;;;;;;;0.05;0.05;;;16.80;99.90;;;;;;4862096;29;20152;-64
2022/05/24 09:53:26;;;;;;;0.00;0.00;;;16.30;99.90;;;;;;4867177;29;20144;-62
2022/05/24 09:56:01;;;;;;;0.00;0.00;;;16.10;99.90;;;;;;4866704;29;20128;-64
2022/05/24 09:58:56;;;;;;;0.13;0.10;;;15.90;99.90;;;;;;4867404;29;20063;-62
2022/05/24 10:01:40;;;;;;;0.08;0.08;;;15.70;99.90;;;;;;4867716;29;20389;-62
2022/05/24 10:04:16;;;;;;;0.10;0.10;;;15.60;99.90;;;;;;4866578;29;20045;-62
2022/05/24 10:06:51;;;;;;;0.52;0.10;;;15.90;99.90;;;;;;4872958;29;20139;-62
2022/05/24 10:09:20;;;;;;;0.00;0.00;;;16.40;99.90;;;;;;4885370;29;20080;-65
2022/05/24 10:12:07;;;;;;;0.43;0.43;;;16.40;99.90;;;;;;4886475;29;20119;-66
2022/05/24 10:15:00;;;;;;;0.10;0.10;;;16.30;99.90;;;;;;4885187;29;20663;-64
2022/05/24 10:18:01;;;;;;;0.25;0.20;;;15.90;99.90;;;;;;4869351;29;20136;-64
2022/05/24 10:20:57;;;;;;;0.00;0.00;;;15.40;99.90;;;;;;4869525;29;20068;-64
2022/05/24 10:23:42;;;;;;;0.00;0.00;;;14.90;99.90;;;;;;4885791;29;20496;-64
2022/05/24 10:26:42;;;;;;;0.00;0.00;;;14.20;99.90;;;;;;4869169;29;20052;-64
2022/05/24 10:29:35;;;;;;;0.08;0.08;;;14.00;99.90;;;;;;4886326;29;21185;-64
2022/05/24 10:32:07;;;;;;;0.00;0.00;;;13.80;99.90;;;;;;4886245;29;20053;-64
2022/05/24 10:38:28;;;;;;;0.00;0.00;;;13.70;99.90;;;;;;4885279;29;20118;-64
2022/05/24 10:41:07;;;;;;;0.00;0.00;;;13.80;99.90;;;;;;4854495;29;20065;-64
2022/05/24 10:43:39;;;;;;;0.00;0.00;;;14.20;99.90;;;;;;4869193;29;20088;-64
2022/05/24 10:46:14;;;;;;;0.10;0.10;;;14.80;99.90;;;;;;4894908;29;20127;-64
2022/05/24 10:48:45;;;;;;;0.00;0.00;;;15.40;99.90;;;;;;4884109;29;20065;-64
2022/05/24 10:51:23;;;;;;;0.03;0.03;;;15.90;99.90;;;;;;4885575;29;20052;-64
2022/05/24 10:54:01;;;;;;;0.05;0.05;;;16.20;99.90;;;;;;4869433;29;20052;-64
2022/05/24 10:56:52;;;;;;;0.00;0.00;;;16.10;99.90;;;;;;4885689;29;20568;-62
2022/05/24 10:59:35;;;;;;;0.30;0.30;;;15.90;99.90;;;;;;4884867;29;20067;-62
2022/05/24 11:02:12;;;;;;;0.00;0.00;;;15.60;99.90;;;;;;4885962;29;20136;-62
2022/05/24 11:05:02;;;;;;;0.32;0.32;;;15.30;99.90;;;;;;4885339;29;20043;-59
2022/05/24 11:07:32;;;;;;;0.00;0.00;;;14.60;99.90;;;;;;4887892;29;20143;-62
2022/05/24 11:10:20;;;;;;;0.00;0.00;;;14.30;99.90;;;;;;4871887;29;20128;-63
2022/05/24 11:12:49;;;;;;;0.00;0.00;;;13.80;99.90;;;;;;4873136;29;20091;-64
2022/05/24 11:15:32;;;;;;;0.00;0.00;;;13.30;99.90;;;;;;4889062;29;20255;-62
2022/05/24 11:18:01;;;;;;;0.00;0.00;;;12.80;99.90;;;;;;4872385;29;20067;-61
2022/05/24 11:20:39;;;;;;;0.00;0.00;;;12.50;99.90;;;;;;4889143;29;20119;-63
2022/05/24 11:23:12;;;;;;;0.00;0.00;;;12.30;99.90;;;;;;4888173;29;20820;-63
2022/05/24 11:25:49;;;;;;;0.08;0.08;;;12.20;99.90;;;;;;4889334;29;20055;-67
2022/05/24 11:28:20;;;;;;;0.00;0.00;;;12.30;99.90;;;;;;4872639;29;20057;-69
2022/05/24 11:30:47;;;;;;;0.00;0.00;;;12.00;99.90;;;;;;4871819;29;20650;-68
2022/05/24 11:33:41;;;;;;;0.00;0.00;;;12.00;99.90;;;;;;4889534;29;20048;-69
2022/05/24 11:36:36;;;;;;;0.00;0.00;;;12.20;99.90;;;;;;4886747;29;20061;-68
2022/05/24 11:39:11;;;;;;;;;;;12.30;99.90;;;;;;4889456;29;20056;-69
2022/05/24 11:41:37;;;;;;;0.10;0.10;;;12.50;99.90;;;;;;4889061;29;19971;-70
2022/05/24 11:44:28;;;;;;;0.00;0.00;;;12.70;99.90;;;;;;4871974;29;20052;-69
2022/05/24 11:46:55;;;;;;;0.00;0.00;;;13.10;99.90;;;;;;4877815;29;20056;-70
2022/05/24 11:49:24;;;;;;;0.08;0.08;;;13.30;99.90;;;;;;4888332;29;20109;-70
2022/05/24 11:51:51;;;;;;;0.00;0.00;;;13.60;99.90;;;;;;4871299;29;20052;-70
2022/05/24 11:54:21;;;;;;;0.00;0.00;;;13.60;99.90;;;;;;4888825;29;20041;-69
2022/05/24 11:57:02;;;;;;;0.10;0.10;;;13.70;99.90;;;;;;4871075;29;20280;-68
2022/05/24 11:59:40;;;;;;;0.00;0.00;;;13.80;99.90;;;;;;4888375;29;20051;-69
2022/05/24 12:02:28;;;;;;;0.00;0.00;;;14.20;99.90;;;;;;4888007;29;20586;-69
2022/05/24 12:07:57;;;;;;;0.00;0.00;;;14.80;99.90;;;;;;4887482;29;20063;-67
2022/05/24 12:10:24;;;;;;;0.00;0.00;;;14.70;99.90;;;;;;4888173;29;20056;-68
2022/05/24 12:12:54;;;;;;;0.00;0.00;;;14.70;99.90;;;;;;4887973;29;20044;-68
2022/05/24 12:15:44;;;;;;;0.65;0.15;;;14.70;99.90;;;;;;4871371;29;20127;-68
2022/05/24 12:18:11;;;;;;;0.00;0.00;;;14.90;99.90;;;;;;4886462;29;20504;-68
2022/05/24 12:20:36;;;;;;;0.00;0.00;;;14.80;99.90;;;;;;4888239;29;20060;-66
2022/05/24 12:23:13;;;;;;;0.08;0.08;;;14.90;99.90;;;;;;4870345;29;20052;-67
2022/05/24 12:25:51;;;;;;;0.00;0.00;;;15.10;99.90;;;;;;4887400;29;20585;-67
2022/05/24 12:28:18;;;;;;;0.00;0.00;;;15.10;99.90;;;;;;4888218;29;20056;-68
2022/05/24 12:30:48;;;;;;;0.00;0.00;;;15.30;99.90;;;;;;4888025;29;20040;-68
2022/05/24 12:33:22;;;;;;;0.10;0.05;;;15.30;99.90;;;;;;4888627;29;20127;-69
2022/05/24 12:35:52;;;;;;;0.00;0.00;;;15.10;99.90;;;;;;4870529;29;20415;-69
2022/05/24 12:38:24;;;;;;;0.00;0.00;;;15.10;99.90;;;;;;4887400;29;20060;-69
2022/05/24 12:40:51;;;;;;;0.00;0.00;;;15.00;99.90;;;;;;4887694;29;20052;-68
2022/05/24 12:43:18;;;;;;;0.00;0.00;;;14.80;99.90;;;;;;4887429;29;20084;-69
2022/05/24 12:45:47;;;;;;;0.10;0.10;;;14.60;99.90;;;;;;4893628;29;20115;-69
2022/05/24 12:48:33;;;;;;;0.00;0.00;;;14.60;99.90;;;;;;4875250;29;20072;-69
2022/05/24 12:51:02;;;;;;;0.22;0.20;;;14.70;99.90;;;;;;4886566;29;20043;-68
2022/05/24 12:53:28;;;;;;;0.03;0.03;;;15.20;99.90;;;;;;4886414;29;20132;-68
2022/05/24 12:56:04;;;;;;;0.00;0.00;;;15.60;99.90;;;;;;4887563;29;20457;-69
2022/05/24 12:58:34;;;;;;;0.05;0.05;;;15.90;99.90;;;;;;4886832;29;20451;-67
2022/05/24 13:01:14;;;;;;;0.20;0.20;;;16.10;99.90;;;;;;4887501;29;20049;-68
2022/05/24 13:04:03;;;;;;;0.00;0.00;;;16.00;99.90;;;;;;4887213;29;20063;-70
2022/05/24 13:06:35;;;;;;;0.10;0.10;;;16.00;99.90;;;;;;4867155;29;20083;-70
2022/05/24 13:09:08;;;;;;;0.00;0.00;;;16.00;99.90;;;;;;4874704;29;20485;-71
2022/05/24 13:11:35;;;;;;;0.20;0.17;;;16.00;99.90;;;;;;4875139;29;20048;-69
2022/05/24 13:14:02;;;;;;;0.00;0.00;;;15.80;99.90;;;;;;4872977;29;20400;-70
2022/05/24 13:16:29;;;;;;;0.00;0.00;;;15.30;99.90;;;;;;4874406;29;20468;-71
2022/05/24 13:18:55;;;;;;;0.00;0.00;;;14.40;99.90;;;;;;4873990;29;20085;-71
2022/05/24 13:21:25;;;;;;;0.00;0.00;;;13.70;99.90;;;;;;4873623;29;20033;-70
2022/05/24 13:24:15;;;;;;;0.00;0.00;;;13.50;99.90;;;;;;4874745;29;20143;-68
2022/05/24 13:27:00;;;;;;;0.10;0.00;;;13.40;99.90;;;;;;4874653;29;20060;-68
2022/05/24 13:29:29;;;;;;;0.00;0.00;;;13.30;99.90;;;;;;4871720;29;20579;-69
2022/05/24 13:34:58;;;;;;;0.00;0.00;;;14.00;99.90;;;;;;4873285;29;20072;-69
2022/05/24 13:37:27;;;;;;;0.00;0.00;;;14.00;99.90;;;;;;4873141;29;20088;-69
2022/05/24 13:39:56;;;;;;;0.00;0.00;;;14.40;99.90;;;;;;4875668;29;20045;-70
2022/05/24 13:42:28;;;;;;;0.00;0.00;;;14.80;99.90;;;;;;4873071;29;20692;-70
2022/05/24 13:45:06;;;;;;;0.85;0.40;;;15.20;99.90;;;;;;4864158;29;20534;-70
2022/05/24 13:47:37;;;;;;;0.00;0.00;;;15.30;99.90;;;;;;4873784;29;20045;-70
2022/05/24 13:50:34;;;;;;;0.00;0.00;;;15.50;99.90;;;;;;4872026;29;20048;-70
2022/05/24 13:53:04;;;;;;;0.00;0.00;;;15.70;99.90;;;;;;4873714;29;20053;-70
2022/05/24 13:55:35;;;;;;;0.00;0.00;;;15.80;99.90;;;;;;4874244;29;20060;-69